This is the latest recevied weather packets stored in our database for station/object KM4KMS. If no packets are shown the sender has not sent any weather packets the latest 10 day(s).
| Time | Temp. | Humidity | Pressure | Rain* | Wind** | Luminosity | Snow |
|---|---|---|---|---|---|---|---|
| 1777703681 | 3.33° C | 96% | 1016.3 hPa | 0 mm | - | 0 W/m² | - |
| 1777703379 | 3.33° C | 95% | 1016.2 hPa | 0 mm | - | 0 W/m² | - |
| 1777703075 | 3.89° C | 95% | 1016.2 hPa | 0 mm | - | 0 W/m² | - |
| 1777702774 | 3.89° C | 93% | 1016 hPa | 0 mm | - | 0 W/m² | - |
| 1777702471 | 3.89° C | 93% | 1016.3 hPa | 0 mm | - | 0 W/m² | - |
| 1777702167 | 3.89° C | 94% | 1016.5 hPa | 0 mm | - | 0 W/m² | - |
| 1777701862 | 3.89° C | 94% | 1016.3 hPa | 0 mm | - | 0 W/m² | - |
| 1777701560 | 3.33° C | 95% | 1016.4 hPa | 0 mm | - | 0 W/m² | - |
| 1777701257 | 3.33° C | 94% | 1016.5 hPa | 0 mm | - | 0 W/m² | - |
| 1777700952 | 3.33° C | 93% | 1016.7 hPa | 0 mm | - | 0 W/m² | - |
| 1777700649 | 3.33° C | 92% | 1016.8 hPa | 0 mm | - | 0 W/m² | - |
| 1777700347 | 3.89° C | 92% | 1016.7 hPa | 0 mm | - | 0 W/m² | - |
| 1777700044 | 3.89° C | 91% | 1016.8 hPa | 0 mm | - | 0 W/m² | - |
| 1777699741 | 4.44° C | 90% | 1016.7 hPa | 0 mm | - | 0 W/m² | - |
| 1777699439 | 5° C | 88% | 1016.5 hPa | 0 mm | - | 0 W/m² | - |
| 1777699136 | 4.44° C | 90% | 1016.5 hPa | 0 mm | - | 0 W/m² | - |
| 1777698835 | 5° C | 90% | 1016.4 hPa | 0 mm | - | 0 W/m² | - |
| 1777698531 | 5° C | 89% | 1016.6 hPa | 0 mm | - | 0 W/m² | - |
| 1777698228 | 5° C | 90% | 1016.5 hPa | 0 mm | - | 0 W/m² | - |
| 1777697925 | 3.89° C | 93% | 1016.7 hPa | 0 mm | - | 0 W/m² | - |
| 1777697621 | 4.44° C | 90% | 1016.6 hPa | 0 mm | - | 0 W/m² | - |
| 1777697319 | 5° C | 89% | 1016.6 hPa | 0 mm | - | 0 W/m² | - |
| 1777697014 | 4.44° C | 89% | 1016.5 hPa | 0 mm | - | 0 W/m² | - |
| 1777696712 | 5° C | 87% | 1016.6 hPa | 0 mm | - | 0 W/m² | - |
| 1777696410 | 5° C | 88% | 1016.6 hPa | 0 mm | - | 0 W/m² | - |
* Rain latest hour (hover to see other rain measurements)
** Current wind speed in m/s (hover to see current wind gust speed)